sensor_id;sensor_type;location;lat;lon;timestamp;P1;durP1;ratioP1;P2;durP2;ratioP2
14187;SDS011;7175;51.978;5.330;2022-10-03T00:01:43;107.47;;;100.40;;
14187;SDS011;7175;51.978;5.330;2022-10-03T00:07:35;105.70;;;99.10;;
14187;SDS011;7175;51.978;5.330;2022-10-03T00:10:21;102.77;;;96.27;;
14187;SDS011;7175;51.978;5.330;2022-10-03T00:13:11;103.57;;;97.07;;
14187;SDS011;7175;51.978;5.330;2022-10-03T00:15:48;102.10;;;95.67;;
14187;SDS011;7175;51.978;5.330;2022-10-03T00:18:29;103.90;;;97.40;;
14187;SDS011;7175;51.978;5.330;2022-10-03T00:21:08;103.50;;;97.00;;
14187;SDS011;7175;51.978;5.330;2022-10-03T00:23:55;102.43;;;95.83;;
14187;SDS011;7175;51.978;5.330;2022-10-03T00:26:35;101.43;;;94.93;;
14187;SDS011;7175;51.978;5.330;2022-10-03T00:29:19;102.80;;;95.97;;
14187;SDS011;7175;51.978;5.330;2022-10-03T00:31:55;102.27;;;95.67;;
14187;SDS011;7175;51.978;5.330;2022-10-03T00:34:37;100.63;;;94.23;;
14187;SDS011;7175;51.978;5.330;2022-10-03T00:37:22;104.10;;;97.60;;
14187;SDS011;7175;51.978;5.330;2022-10-03T00:40:14;100.97;;;94.57;;
14187;SDS011;7175;51.978;5.330;2022-10-03T00:43:15;103.17;;;96.67;;
14187;SDS011;7175;51.978;5.330;2022-10-03T00:46:12;100.63;;;94.17;;
14187;SDS011;7175;51.978;5.330;2022-10-03T00:52:26;105.33;;;98.63;;
14187;SDS011;7175;51.978;5.330;2022-10-03T00:55:14;101.80;;;95.30;;
14187;SDS011;7175;51.978;5.330;2022-10-03T00:57:56;104.03;;;97.43;;
14187;SDS011;7175;51.978;5.330;2022-10-03T01:00:37;102.03;;;95.53;;
14187;SDS011;7175;51.978;5.330;2022-10-03T01:03:21;100.67;;;94.17;;
14187;SDS011;7175;51.978;5.330;2022-10-03T01:06:05;101.30;;;94.80;;
14187;SDS011;7175;51.978;5.330;2022-10-03T01:08:47;101.37;;;94.87;;
14187;SDS011;7175;51.978;5.330;2022-10-03T01:14:31;103.07;;;96.57;;
14187;SDS011;7175;51.978;5.330;2022-10-03T01:17:16;102.80;;;96.30;;
14187;SDS011;7175;51.978;5.330;2022-10-03T01:19:57;101.40;;;94.90;;
14187;SDS011;7175;51.978;5.330;2022-10-03T01:22:47;101.00;;;94.50;;
14187;SDS011;7175;51.978;5.330;2022-10-03T01:25:36;101.30;;;94.70;;
14187;SDS011;7175;51.978;5.330;2022-10-03T01:28:19;101.90;;;95.30;;
14187;SDS011;7175;51.978;5.330;2022-10-03T01:31:16;100.00;;;93.50;;
14187;SDS011;7175;51.978;5.330;2022-10-03T01:33:51;101.43;;;94.87;;
14187;SDS011;7175;51.978;5.330;2022-10-03T01:36:28;103.77;;;97.07;;
14187;SDS011;7175;51.978;5.330;2022-10-03T01:39:04;101.77;;;95.17;;
14187;SDS011;7175;51.978;5.330;2022-10-03T01:41:43;102.10;;;95.50;;
14187;SDS011;7175;51.978;5.330;2022-10-03T01:44:20;102.00;;;95.40;;
14187;SDS011;7175;51.978;5.330;2022-10-03T01:46:53;100.57;;;93.97;;
14187;SDS011;7175;51.978;5.330;2022-10-03T01:49:32;101.57;;;94.97;;
14187;SDS011;7175;51.978;5.330;2022-10-03T01:52:08;102.37;;;95.77;;
14187;SDS011;7175;51.978;5.330;2022-10-03T01:54:42;101.90;;;95.37;;
14187;SDS011;7175;51.978;5.330;2022-10-03T01:57:24;102.13;;;95.57;;
14187;SDS011;7175;51.978;5.330;2022-10-03T02:00:03;102.13;;;95.53;;
14187;SDS011;7175;51.978;5.330;2022-10-03T02:02:38;101.07;;;94.57;;
14187;SDS011;7175;51.978;5.330;2022-10-03T02:05:16;100.53;;;93.93;;
14187;SDS011;7175;51.978;5.330;2022-10-03T02:07:52;99.77;;;93.20;;
14187;SDS011;7175;51.978;5.330;2022-10-03T02:10:36;102.33;;;95.63;;
14187;SDS011;7175;51.978;5.330;2022-10-03T02:13:10;100.60;;;94.03;;
14187;SDS011;7175;51.978;5.330;2022-10-03T02:15:47;98.90;;;92.40;;
14187;SDS011;7175;51.978;5.330;2022-10-03T02:18:27;98.77;;;92.27;;
14187;SDS011;7175;51.978;5.330;2022-10-03T02:21:05;99.30;;;92.80;;
14187;SDS011;7175;51.978;5.330;2022-10-03T02:23:41;99.27;;;92.77;;
14187;SDS011;7175;51.978;5.330;2022-10-03T02:29:18;100.57;;;94.07;;
14187;SDS011;7175;51.978;5.330;2022-10-03T02:35:15;99.43;;;93.03;;
14187;SDS011;7175;51.978;5.330;2022-10-03T02:37:59;100.67;;;94.17;;
14187;SDS011;7175;51.978;5.330;2022-10-03T02:44:03;99.17;;;92.67;;
14187;SDS011;7175;51.978;5.330;2022-10-03T02:53:22;103.40;;;96.70;;
14187;SDS011;7175;51.978;5.330;2022-10-03T02:59:19;103.30;;;96.47;;
14187;SDS011;7175;51.978;5.330;2022-10-03T03:05:10;104.13;;;97.57;;
14187;SDS011;7175;51.978;5.330;2022-10-03T03:11:03;102.90;;;96.40;;
14187;SDS011;7175;51.978;5.330;2022-10-03T03:13:51;103.07;;;96.47;;
14187;SDS011;7175;51.978;5.330;2022-10-03T03:17:00;103.80;;;97.20;;
14187;SDS011;7175;51.978;5.330;2022-10-03T03:19:53;104.63;;;97.93;;
14187;SDS011;7175;51.978;5.330;2022-10-03T03:22:46;104.27;;;97.63;;
14187;SDS011;7175;51.978;5.330;2022-10-03T03:25:34;105.53;;;98.83;;
14187;SDS011;7175;51.978;5.330;2022-10-03T03:28:16;107.07;;;100.27;;
14187;SDS011;7175;51.978;5.330;2022-10-03T03:30:55;109.77;;;102.17;;
14187;SDS011;7175;51.978;5.330;2022-10-03T03:36:49;105.47;;;98.77;;
14187;SDS011;7175;51.978;5.330;2022-10-03T03:39:31;105.57;;;98.97;;
14187;SDS011;7175;51.978;5.330;2022-10-03T03:42:16;106.43;;;99.73;;
14187;SDS011;7175;51.978;5.330;2022-10-03T03:45:04;106.37;;;99.67;;
14187;SDS011;7175;51.978;5.330;2022-10-03T03:50:50;108.83;;;102.23;;
14187;SDS011;7175;51.978;5.330;2022-10-03T03:56:23;108.13;;;101.50;;
14187;SDS011;7175;51.978;5.330;2022-10-03T03:59:08;105.80;;;99.20;;
14187;SDS011;7175;51.978;5.330;2022-10-03T04:01:54;108.30;;;101.50;;
14187;SDS011;7175;51.978;5.330;2022-10-03T04:04:40;108.20;;;101.30;;
14187;SDS011;7175;51.978;5.330;2022-10-03T04:07:22;108.47;;;101.57;;
14187;SDS011;7175;51.978;5.330;2022-10-03T04:10:10;107.77;;;100.87;;
14187;SDS011;7175;51.978;5.330;2022-10-03T04:12:48;107.93;;;101.10;;
14187;SDS011;7175;51.978;5.330;2022-10-03T04:15:37;106.90;;;100.10;;
14187;SDS011;7175;51.978;5.330;2022-10-03T04:18:25;107.93;;;101.23;;
14187;SDS011;7175;51.978;5.330;2022-10-03T04:21:31;108.30;;;101.57;;
14187;SDS011;7175;51.978;5.330;2022-10-03T04:24:34;110.00;;;103.20;;
14187;SDS011;7175;51.978;5.330;2022-10-03T04:27:26;110.63;;;103.93;;
14187;SDS011;7175;51.978;5.330;2022-10-03T04:30:25;108.60;;;101.90;;
14187;SDS011;7175;51.978;5.330;2022-10-03T04:33:08;109.50;;;102.87;;
14187;SDS011;7175;51.978;5.330;2022-10-03T04:38:52;109.40;;;102.70;;
14187;SDS011;7175;51.978;5.330;2022-10-03T04:41:34;108.23;;;101.50;;
14187;SDS011;7175;51.978;5.330;2022-10-03T04:44:10;108.43;;;101.93;;
14187;SDS011;7175;51.978;5.330;2022-10-03T04:46:53;108.07;;;101.47;;
14187;SDS011;7175;51.978;5.330;2022-10-03T04:49:30;106.47;;;99.97;;
14187;SDS011;7175;51.978;5.330;2022-10-03T04:52:05;107.07;;;100.47;;
14187;SDS011;7175;51.978;5.330;2022-10-03T04:54:46;110.63;;;104.03;;
14187;SDS011;7175;51.978;5.330;2022-10-03T04:57:23;110.77;;;104.27;;
14187;SDS011;7175;51.978;5.330;2022-10-03T05:00:00;108.53;;;102.03;;
14187;SDS011;7175;51.978;5.330;2022-10-03T05:02:42;108.23;;;101.70;;
14187;SDS011;7175;51.978;5.330;2022-10-03T05:05:22;107.43;;;100.93;;
14187;SDS011;7175;51.978;5.330;2022-10-03T05:08:13;110.00;;;103.13;;
14187;SDS011;7175;51.978;5.330;2022-10-03T05:10:49;112.60;;;105.70;;
14187;SDS011;7175;51.978;5.330;2022-10-03T05:16:14;106.63;;;100.07;;
14187;SDS011;7175;51.978;5.330;2022-10-03T05:18:49;105.63;;;98.90;;
14187;SDS011;7175;51.978;5.330;2022-10-03T05:21:23;106.53;;;99.93;;
14187;SDS011;7175;51.978;5.330;2022-10-03T05:24:01;105.93;;;99.43;;
14187;SDS011;7175;51.978;5.330;2022-10-03T05:26:45;110.17;;;103.47;;
14187;SDS011;7175;51.978;5.330;2022-10-03T05:29:26;107.00;;;100.40;;
14187;SDS011;7175;51.978;5.330;2022-10-03T05:32:11;115.40;;;108.50;;
14187;SDS011;7175;51.978;5.330;2022-10-03T05:34:55;116.57;;;109.63;;
14187;SDS011;7175;51.978;5.330;2022-10-03T05:40:50;110.40;;;103.70;;
14187;SDS011;7175;51.978;5.330;2022-10-03T05:43:32;117.63;;;110.73;;
14187;SDS011;7175;51.978;5.330;2022-10-03T05:46:17;113.37;;;106.67;;
14187;SDS011;7175;51.978;5.330;2022-10-03T05:48:50;103.90;;;97.40;;
14187;SDS011;7175;51.978;5.330;2022-10-03T05:51:31;106.93;;;100.33;;
14187;SDS011;7175;51.978;5.330;2022-10-03T05:57:31;98.07;;;91.57;;
14187;SDS011;7175;51.978;5.330;2022-10-03T06:00:24;101.30;;;94.47;;
14187;SDS011;7175;51.978;5.330;2022-10-03T06:03:44;94.97;;;88.47;;
14187;SDS011;7175;51.978;5.330;2022-10-03T06:06:32;100.07;;;93.47;;
14187;SDS011;7175;51.978;5.330;2022-10-03T06:09:15;99.47;;;92.97;;
14187;SDS011;7175;51.978;5.330;2022-10-03T06:12:06;100.63;;;93.93;;
14187;SDS011;7175;51.978;5.330;2022-10-03T06:15:00;100.50;;;93.73;;
14187;SDS011;7175;51.978;5.330;2022-10-03T06:17:57;105.20;;;98.30;;
14187;SDS011;7175;51.978;5.330;2022-10-03T06:24:04;104.70;;;97.70;;
14187;SDS011;7175;51.978;5.330;2022-10-03T06:27:00;103.50;;;96.50;;
14187;SDS011;7175;51.978;5.330;2022-10-03T06:29:57;103.87;;;96.77;;
14187;SDS011;7175;51.978;5.330;2022-10-03T06:36:08;110.10;;;102.50;;
14187;SDS011;7175;51.978;5.330;2022-10-03T06:39:15;108.53;;;101.13;;
14187;SDS011;7175;51.978;5.330;2022-10-03T06:42:10;112.83;;;105.23;;
14187;SDS011;7175;51.978;5.330;2022-10-03T06:45:13;110.60;;;103.10;;
14187;SDS011;7175;51.978;5.330;2022-10-03T06:48:06;110.80;;;103.20;;
14187;SDS011;7175;51.978;5.330;2022-10-03T06:54:11;109.73;;;102.13;;
14187;SDS011;7175;51.978;5.330;2022-10-03T06:57:06;111.23;;;103.53;;
14187;SDS011;7175;51.978;5.330;2022-10-03T06:59:52;116.27;;;108.17;;
14187;SDS011;7175;51.978;5.330;2022-10-03T07:02:42;116.03;;;107.63;;
14187;SDS011;7175;51.978;5.330;2022-10-03T07:18:45;116.33;;;108.07;;
14187;SDS011;7175;51.978;5.330;2022-10-03T07:28:23;116.80;;;108.50;;
14187;SDS011;7175;51.978;5.330;2022-10-03T07:31:18;118.47;;;109.87;;
14187;SDS011;7175;51.978;5.330;2022-10-03T07:34:08;116.20;;;107.70;;
14187;SDS011;7175;51.978;5.330;2022-10-03T07:37:12;120.60;;;111.90;;
14187;SDS011;7175;51.978;5.330;2022-10-03T07:43:26;116.70;;;108.20;;
14187;SDS011;7175;51.978;5.330;2022-10-03T07:46:25;115.93;;;107.23;;
14187;SDS011;7175;51.978;5.330;2022-10-03T07:49:27;120.30;;;111.50;;
14187;SDS011;7175;51.978;5.330;2022-10-03T07:52:24;120.93;;;112.07;;
14187;SDS011;7175;51.978;5.330;2022-10-03T07:55:18;121.67;;;112.77;;
14187;SDS011;7175;51.978;5.330;2022-10-03T08:01:05;127.60;;;118.30;;
14187;SDS011;7175;51.978;5.330;2022-10-03T08:07:21;124.93;;;115.73;;
14187;SDS011;7175;51.978;5.330;2022-10-03T08:10:14;125.10;;;115.93;;
14187;SDS011;7175;51.978;5.330;2022-10-03T08:13:00;128.13;;;118.87;;
14187;SDS011;7175;51.978;5.330;2022-10-03T08:15:56;123.00;;;113.87;;
14187;SDS011;7175;51.978;5.330;2022-10-03T08:18:58;123.63;;;114.37;;
14187;SDS011;7175;51.978;5.330;2022-10-03T08:21:43;122.83;;;113.27;;
14187;SDS011;7175;51.978;5.330;2022-10-03T08:24:36;119.33;;;110.33;;
14187;SDS011;7175;51.978;5.330;2022-10-03T08:27:38;118.40;;;109.50;;
14187;SDS011;7175;51.978;5.330;2022-10-03T08:30:21;118.47;;;109.60;;
14187;SDS011;7175;51.978;5.330;2022-10-03T08:32:57;121.17;;;112.00;;
14187;SDS011;7175;51.978;5.330;2022-10-03T08:35:56;126.40;;;117.13;;
14187;SDS011;7175;51.978;5.330;2022-10-03T08:38:46;123.20;;;114.20;;
14187;SDS011;7175;51.978;5.330;2022-10-03T08:41:47;120.43;;;111.63;;
14187;SDS011;7175;51.978;5.330;2022-10-03T08:44:58;121.97;;;113.10;;
14187;SDS011;7175;51.978;5.330;2022-10-03T08:51:15;120.77;;;112.00;;
14187;SDS011;7175;51.978;5.330;2022-10-03T08:54:18;120.90;;;112.10;;
14187;SDS011;7175;51.978;5.330;2022-10-03T08:57:10;121.10;;;112.20;;
14187;SDS011;7175;51.978;5.330;2022-10-03T09:00:15;118.17;;;109.67;;
14187;SDS011;7175;51.978;5.330;2022-10-03T09:06:21;117.30;;;108.90;;
14187;SDS011;7175;51.978;5.330;2022-10-03T09:15:41;108.10;;;100.73;;
14187;SDS011;7175;51.978;5.330;2022-10-03T09:18:52;106.07;;;99.07;;
14187;SDS011;7175;51.978;5.330;2022-10-03T09:24:59;94.40;;;88.30;;
14187;SDS011;7175;51.978;5.330;2022-10-03T09:31:17;87.77;;;82.10;;
14187;SDS011;7175;51.978;5.330;2022-10-03T09:43:27;58.70;;;54.93;;
14187;SDS011;7175;51.978;5.330;2022-10-03T09:46:35;57.63;;;53.93;;
14187;SDS011;7175;51.978;5.330;2022-10-03T09:49:52;44.90;;;41.80;;
14187;SDS011;7175;51.978;5.330;2022-10-03T09:52:48;34.10;;;31.60;;
14187;SDS011;7175;51.978;5.330;2022-10-03T09:55:44;28.20;;;26.00;;
14187;SDS011;7175;51.978;5.330;2022-10-03T09:58:39;24.33;;;22.33;;
14187;SDS011;7175;51.978;5.330;2022-10-03T10:01:28;24.50;;;22.50;;
14187;SDS011;7175;51.978;5.330;2022-10-03T10:04:16;23.37;;;21.47;;
14187;SDS011;7175;51.978;5.330;2022-10-03T10:07:35;21.87;;;20.07;;
14187;SDS011;7175;51.978;5.330;2022-10-03T10:10:43;21.27;;;19.47;;
14187;SDS011;7175;51.978;5.330;2022-10-03T10:13:35;21.43;;;19.63;;
14187;SDS011;7175;51.978;5.330;2022-10-03T10:19:39;20.30;;;18.60;;
14187;SDS011;7175;51.978;5.330;2022-10-03T10:25:42;19.70;;;18.10;;
14187;SDS011;7175;51.978;5.330;2022-10-03T10:28:42;20.07;;;18.47;;
14187;SDS011;7175;51.978;5.330;2022-10-03T10:34:58;19.70;;;18.10;;
14187;SDS011;7175;51.978;5.330;2022-10-03T10:38:03;19.80;;;18.20;;
14187;SDS011;7175;51.978;5.330;2022-10-03T10:44:14;19.27;;;17.77;;
14187;SDS011;7175;51.978;5.330;2022-10-03T10:50:32;18.63;;;17.13;;
14187;SDS011;7175;51.978;5.330;2022-10-03T10:56:56;19.10;;;17.60;;
14187;SDS011;7175;51.978;5.330;2022-10-03T11:02:56;18.97;;;17.43;;
14187;SDS011;7175;51.978;5.330;2022-10-03T11:09:14;18.13;;;16.63;;
14187;SDS011;7175;51.978;5.330;2022-10-03T11:40:01;18.70;;;17.20;;
14187;SDS011;7175;51.978;5.330;2022-10-03T11:49:56;19.50;;;17.90;;
14187;SDS011;7175;51.978;5.330;2022-10-03T12:02:14;18.67;;;17.17;;
14187;SDS011;7175;51.978;5.330;2022-10-03T12:11:32;18.93;;;17.53;;
14187;SDS011;7175;51.978;5.330;2022-10-03T12:17:03;19.00;;;17.50;;
14187;SDS011;7175;51.978;5.330;2022-10-03T12:19:38;18.63;;;17.13;;
14187;SDS011;7175;51.978;5.330;2022-10-03T12:22:20;19.20;;;17.70;;
14187;SDS011;7175;51.978;5.330;2022-10-03T12:25:05;19.30;;;17.80;;
14187;SDS011;7175;51.978;5.330;2022-10-03T12:27:55;19.70;;;18.10;;
14187;SDS011;7175;51.978;5.330;2022-10-03T12:30:39;19.33;;;17.73;;
14187;SDS011;7175;51.978;5.330;2022-10-03T12:33:28;19.40;;;17.80;;
14187;SDS011;7175;51.978;5.330;2022-10-03T12:36:14;19.50;;;17.90;;
14187;SDS011;7175;51.978;5.330;2022-10-03T12:41:36;19.60;;;18.10;;
14187;SDS011;7175;51.978;5.330;2022-10-03T12:44:25;19.50;;;18.00;;
14187;SDS011;7175;51.978;5.330;2022-10-03T12:50:22;19.50;;;18.00;;
14187;SDS011;7175;51.978;5.330;2022-10-03T12:53:14;19.20;;;17.70;;
14187;SDS011;7175;51.978;5.330;2022-10-03T12:58:43;18.93;;;17.43;;
14187;SDS011;7175;51.978;5.330;2022-10-03T13:01:20;19.10;;;17.60;;
14187;SDS011;7175;51.978;5.330;2022-10-03T13:03:56;19.00;;;17.50;;
14187;SDS011;7175;51.978;5.330;2022-10-03T13:06:39;18.93;;;17.53;;
14187;SDS011;7175;51.978;5.330;2022-10-03T13:19:10;19.20;;;17.60;;
14187;SDS011;7175;51.978;5.330;2022-10-03T13:21:56;18.73;;;17.23;;
14187;SDS011;7175;51.978;5.330;2022-10-03T13:30:56;23.00;;;18.43;;
14187;SDS011;7175;51.978;5.330;2022-10-03T13:36:41;19.20;;;17.70;;
14187;SDS011;7175;51.978;5.330;2022-10-03T13:39:14;18.73;;;17.30;;
14187;SDS011;7175;51.978;5.330;2022-10-03T13:42:05;18.17;;;16.77;;
14187;SDS011;7175;51.978;5.330;2022-10-03T13:48:07;18.37;;;16.97;;
14187;SDS011;7175;51.978;5.330;2022-10-03T13:50:47;18.20;;;16.80;;
14187;SDS011;7175;51.978;5.330;2022-10-03T13:53:32;18.80;;;17.30;;
14187;SDS011;7175;51.978;5.330;2022-10-03T13:56:16;18.57;;;17.07;;
14187;SDS011;7175;51.978;5.330;2022-10-03T13:58:57;19.10;;;17.50;;
14187;SDS011;7175;51.978;5.330;2022-10-03T14:01:38;19.03;;;17.53;;
14187;SDS011;7175;51.978;5.330;2022-10-03T14:04:27;39.07;;;17.87;;
14187;SDS011;7175;51.978;5.330;2022-10-03T14:07:44;18.80;;;17.30;;
14187;SDS011;7175;51.978;5.330;2022-10-03T14:10:28;19.20;;;17.70;;
14187;SDS011;7175;51.978;5.330;2022-10-03T14:13:24;19.17;;;17.67;;
14187;SDS011;7175;51.978;5.330;2022-10-03T14:16:11;19.10;;;17.60;;
14187;SDS011;7175;51.978;5.330;2022-10-03T14:18:48;19.10;;;17.60;;
14187;SDS011;7175;51.978;5.330;2022-10-03T14:24:41;19.23;;;17.73;;
14187;SDS011;7175;51.978;5.330;2022-10-03T14:27:31;18.80;;;17.30;;
14187;SDS011;7175;51.978;5.330;2022-10-03T14:33:13;19.53;;;18.03;;
14187;SDS011;7175;51.978;5.330;2022-10-03T14:35:54;19.13;;;17.63;;
14187;SDS011;7175;51.978;5.330;2022-10-03T14:44:13;20.83;;;19.10;;
14187;SDS011;7175;51.978;5.330;2022-10-03T14:46:46;19.40;;;17.90;;
14187;SDS011;7175;51.978;5.330;2022-10-03T14:49:28;19.83;;;18.33;;
14187;SDS011;7175;51.978;5.330;2022-10-03T14:52:22;20.10;;;18.50;;
14187;SDS011;7175;51.978;5.330;2022-10-03T14:55:06;19.73;;;18.17;;
14187;SDS011;7175;51.978;5.330;2022-10-03T14:57:52;20.20;;;18.60;;
14187;SDS011;7175;51.978;5.330;2022-10-03T15:00:44;18.70;;;17.20;;
14187;SDS011;7175;51.978;5.330;2022-10-03T15:03:27;19.30;;;17.80;;
14187;SDS011;7175;51.978;5.330;2022-10-03T15:06:01;18.90;;;17.40;;
14187;SDS011;7175;51.978;5.330;2022-10-03T15:09:01;19.43;;;17.87;;
14187;SDS011;7175;51.978;5.330;2022-10-03T15:11:37;19.90;;;18.30;;
14187;SDS011;7175;51.978;5.330;2022-10-03T15:14:13;43.17;;;18.93;;
14187;SDS011;7175;51.978;5.330;2022-10-03T15:19:20;18.67;;;17.07;;
14187;SDS011;7175;51.978;5.330;2022-10-03T15:21:54;19.67;;;18.03;;
14187;SDS011;7175;51.978;5.330;2022-10-03T15:24:30;19.60;;;17.90;;
14187;SDS011;7175;51.978;5.330;2022-10-03T15:27:07;18.77;;;17.27;;
14187;SDS011;7175;51.978;5.330;2022-10-03T15:29:42;19.57;;;17.97;;
14187;SDS011;7175;51.978;5.330;2022-10-03T15:32:22;19.40;;;17.80;;
14187;SDS011;7175;51.978;5.330;2022-10-03T15:34:54;19.30;;;17.80;;
14187;SDS011;7175;51.978;5.330;2022-10-03T15:37:29;19.17;;;17.67;;
14187;SDS011;7175;51.978;5.330;2022-10-03T15:40:19;19.53;;;17.93;;
14187;SDS011;7175;51.978;5.330;2022-10-03T15:43:00;19.50;;;17.90;;
14187;SDS011;7175;51.978;5.330;2022-10-03T15:45:37;19.70;;;18.10;;
14187;SDS011;7175;51.978;5.330;2022-10-03T15:48:10;19.70;;;18.10;;
14187;SDS011;7175;51.978;5.330;2022-10-03T15:51:00;19.73;;;18.13;;
14187;SDS011;7175;51.978;5.330;2022-10-03T15:59:13;19.97;;;18.37;;
14187;SDS011;7175;51.978;5.330;2022-10-03T16:05:11;20.77;;;18.77;;
14187;SDS011;7175;51.978;5.330;2022-10-03T16:07:57;21.70;;;19.90;;
14187;SDS011;7175;51.978;5.330;2022-10-03T16:10:35;19.27;;;17.67;;
14187;SDS011;7175;51.978;5.330;2022-10-03T16:18:50;19.13;;;17.53;;
14187;SDS011;7175;51.978;5.330;2022-10-03T16:21:30;19.57;;;17.97;;
14187;SDS011;7175;51.978;5.330;2022-10-03T16:27:21;19.43;;;17.93;;
14187;SDS011;7175;51.978;5.330;2022-10-03T16:29:52;19.70;;;18.20;;
14187;SDS011;7175;51.978;5.330;2022-10-03T16:32:30;19.20;;;17.60;;
14187;SDS011;7175;51.978;5.330;2022-10-03T16:35:20;22.93;;;17.93;;
14187;SDS011;7175;51.978;5.330;2022-10-03T16:41:05;18.70;;;17.20;;
14187;SDS011;7175;51.978;5.330;2022-10-03T16:43:58;18.90;;;17.40;;
14187;SDS011;7175;51.978;5.330;2022-10-03T16:46:36;18.80;;;17.30;;
14187;SDS011;7175;51.978;5.330;2022-10-03T16:52:31;19.60;;;18.10;;
14187;SDS011;7175;51.978;5.330;2022-10-03T16:55:03;18.70;;;17.30;;
14187;SDS011;7175;51.978;5.330;2022-10-03T16:57:40;19.93;;;18.27;;
14187;SDS011;7175;51.978;5.330;2022-10-03T17:00:15;19.27;;;17.77;;
14187;SDS011;7175;51.978;5.330;2022-10-03T17:02:47;19.30;;;17.80;;
14187;SDS011;7175;51.978;5.330;2022-10-03T17:05:23;19.43;;;17.93;;
14187;SDS011;7175;51.978;5.330;2022-10-03T17:07:52;19.20;;;17.70;;
14187;SDS011;7175;51.978;5.330;2022-10-03T17:10:51;19.30;;;17.80;;
14187;SDS011;7175;51.978;5.330;2022-10-03T17:13:23;19.60;;;17.90;;
14187;SDS011;7175;51.978;5.330;2022-10-03T17:15:58;19.90;;;18.30;;
14187;SDS011;7175;51.978;5.330;2022-10-03T17:18:33;20.27;;;18.50;;
14187;SDS011;7175;51.978;5.330;2022-10-03T17:21:13;19.73;;;18.23;;
14187;SDS011;7175;51.978;5.330;2022-10-03T17:23:52;20.70;;;19.10;;
14187;SDS011;7175;51.978;5.330;2022-10-03T17:26:32;20.77;;;19.17;;
14187;SDS011;7175;51.978;5.330;2022-10-03T17:29:09;21.90;;;19.93;;
14187;SDS011;7175;51.978;5.330;2022-10-03T17:31:47;21.80;;;20.10;;
14187;SDS011;7175;51.978;5.330;2022-10-03T17:34:21;21.10;;;19.50;;
14187;SDS011;7175;51.978;5.330;2022-10-03T17:37:06;22.00;;;20.30;;
14187;SDS011;7175;51.978;5.330;2022-10-03T17:39:47;23.27;;;21.47;;
14187;SDS011;7175;51.978;5.330;2022-10-03T17:42:26;22.13;;;20.53;;
14187;SDS011;7175;51.978;5.330;2022-10-03T17:45:04;22.97;;;21.33;;
14187;SDS011;7175;51.978;5.330;2022-10-03T17:47:54;23.57;;;21.87;;
14187;SDS011;7175;51.978;5.330;2022-10-03T17:50:26;22.90;;;21.20;;
14187;SDS011;7175;51.978;5.330;2022-10-03T17:52:57;23.57;;;21.87;;
14187;SDS011;7175;51.978;5.330;2022-10-03T17:55:29;23.40;;;21.70;;
14187;SDS011;7175;51.978;5.330;2022-10-03T17:58:02;24.10;;;22.40;;
14187;SDS011;7175;51.978;5.330;2022-10-03T18:00:52;23.93;;;22.17;;
14187;SDS011;7175;51.978;5.330;2022-10-03T18:03:27;24.60;;;22.80;;
14187;SDS011;7175;51.978;5.330;2022-10-03T18:05:59;25.30;;;23.40;;
14187;SDS011;7175;51.978;5.330;2022-10-03T18:08:49;24.63;;;22.83;;
14187;SDS011;7175;51.978;5.330;2022-10-03T18:11:20;25.07;;;23.17;;
14187;SDS011;7175;51.978;5.330;2022-10-03T18:13:51;25.87;;;23.97;;
14187;SDS011;7175;51.978;5.330;2022-10-03T18:16:31;26.90;;;24.90;;
14187;SDS011;7175;51.978;5.330;2022-10-03T18:22:05;25.90;;;24.00;;
14187;SDS011;7175;51.978;5.330;2022-10-03T18:24:49;25.97;;;24.07;;
14187;SDS011;7175;51.978;5.330;2022-10-03T18:30:13;28.70;;;26.60;;
14187;SDS011;7175;51.978;5.330;2022-10-03T18:32:45;28.37;;;26.27;;
14187;SDS011;7175;51.978;5.330;2022-10-03T18:35:16;28.40;;;26.40;;
14187;SDS011;7175;51.978;5.330;2022-10-03T18:38:00;28.03;;;26.03;;
14187;SDS011;7175;51.978;5.330;2022-10-03T18:40:33;29.87;;;27.77;;
14187;SDS011;7175;51.978;5.330;2022-10-03T18:43:04;29.47;;;27.37;;
14187;SDS011;7175;51.978;5.330;2022-10-03T18:45:33;32.37;;;30.03;;
14187;SDS011;7175;51.978;5.330;2022-10-03T18:48:11;30.10;;;27.90;;
14187;SDS011;7175;51.978;5.330;2022-10-03T18:50:51;30.80;;;28.60;;
14187;SDS011;7175;51.978;5.330;2022-10-03T18:53:28;31.50;;;29.30;;
14187;SDS011;7175;51.978;5.330;2022-10-03T18:56:04;32.57;;;30.27;;
14187;SDS011;7175;51.978;5.330;2022-10-03T18:58:37;33.00;;;30.70;;
14187;SDS011;7175;51.978;5.330;2022-10-03T19:01:12;32.50;;;30.20;;
14187;SDS011;7175;51.978;5.330;2022-10-03T19:03:47;32.90;;;30.60;;
14187;SDS011;7175;51.978;5.330;2022-10-03T19:06:23;34.17;;;31.77;;
14187;SDS011;7175;51.978;5.330;2022-10-03T19:08:54;34.90;;;32.50;;
14187;SDS011;7175;51.978;5.330;2022-10-03T19:11:27;44.30;;;41.30;;
14187;SDS011;7175;51.978;5.330;2022-10-03T19:13:59;38.30;;;35.70;;
14187;SDS011;7175;51.978;5.330;2022-10-03T19:16:39;39.23;;;36.63;;
14187;SDS011;7175;51.978;5.330;2022-10-03T19:19:30;38.47;;;35.97;;
14187;SDS011;7175;51.978;5.330;2022-10-03T19:22:09;37.63;;;35.13;;
14187;SDS011;7175;51.978;5.330;2022-10-03T19:24:40;39.93;;;37.33;;
14187;SDS011;7175;51.978;5.330;2022-10-03T19:27:37;40.50;;;37.90;;
14187;SDS011;7175;51.978;5.330;2022-10-03T19:30:16;41.50;;;38.80;;
14187;SDS011;7175;51.978;5.330;2022-10-03T19:32:52;41.80;;;39.10;;
14187;SDS011;7175;51.978;5.330;2022-10-03T19:35:30;42.23;;;39.53;;
14187;SDS011;7175;51.978;5.330;2022-10-03T19:38:12;43.40;;;40.60;;
14187;SDS011;7175;51.978;5.330;2022-10-03T19:40:50;44.67;;;41.87;;
14187;SDS011;7175;51.978;5.330;2022-10-03T19:49:18;48.17;;;45.17;;
14187;SDS011;7175;51.978;5.330;2022-10-03T19:54:46;47.37;;;44.47;;
14187;SDS011;7175;51.978;5.330;2022-10-03T19:57:25;47.73;;;44.73;;
14187;SDS011;7175;51.978;5.330;2022-10-03T19:59:59;48.87;;;45.87;;
14187;SDS011;7175;51.978;5.330;2022-10-03T20:02:33;48.67;;;45.67;;
14187;SDS011;7175;51.978;5.330;2022-10-03T20:05:04;48.90;;;45.80;;
14187;SDS011;7175;51.978;5.330;2022-10-03T20:07:42;50.10;;;47.00;;
14187;SDS011;7175;51.978;5.330;2022-10-03T20:10:27;51.33;;;48.13;;
14187;SDS011;7175;51.978;5.330;2022-10-03T20:13:08;55.17;;;51.78;;
14187;SDS011;7175;51.978;5.330;2022-10-03T20:15:47;54.87;;;51.47;;
14187;SDS011;7175;51.978;5.330;2022-10-03T20:21:23;53.50;;;50.20;;
14187;SDS011;7175;51.978;5.330;2022-10-03T20:23:54;53.50;;;50.20;;
14187;SDS011;7175;51.978;5.330;2022-10-03T20:26:31;54.23;;;50.83;;
14187;SDS011;7175;51.978;5.330;2022-10-03T20:29:13;53.03;;;49.73;;
14187;SDS011;7175;51.978;5.330;2022-10-03T20:31:49;53.77;;;50.47;;
14187;SDS011;7175;51.978;5.330;2022-10-03T20:34:20;53.23;;;49.87;;
14187;SDS011;7175;51.978;5.330;2022-10-03T20:36:53;53.73;;;50.43;;
14187;SDS011;7175;51.978;5.330;2022-10-03T20:39:36;51.73;;;48.53;;
14187;SDS011;7175;51.978;5.330;2022-10-03T20:42:11;53.37;;;50.07;;
14187;SDS011;7175;51.978;5.330;2022-10-03T20:44:56;54.53;;;51.23;;
14187;SDS011;7175;51.978;5.330;2022-10-03T20:47:48;55.63;;;52.30;;
14187;SDS011;7175;51.978;5.330;2022-10-03T20:50:24;56.70;;;53.20;;
14187;SDS011;7175;51.978;5.330;2022-10-03T20:52:56;58.27;;;54.77;;
14187;SDS011;7175;51.978;5.330;2022-10-03T20:55:28;57.80;;;54.30;;
14187;SDS011;7175;51.978;5.330;2022-10-03T20:58:04;57.90;;;54.40;;